BHE146 ZSNJ-ZUUU
Flight info
| Callsign | BHE146 |
|---|---|
| Flight time | N/A |
| Altitude | 38100 |
| Route | HFE42X HFE W50 XSH W80 URGEG W231 EKOKA EKOKA2E |
| Aircraft | A20N/M-SDE2E3FGHIRWXY/LB1 |
Departure
| Time | 2026-04-24 14:25 |
|---|---|
| Airport | Nanjing Lukou International Airport (ZSNJ) |
Arrival
| Time | N/A |
|---|---|
| Airport | Chengdu Shuangliu International Airport (ZUUU) |
| Time | Latitude | Longitude | Altitude | Speed | Heading |
|---|---|---|---|---|---|
| 2026-04-24 14:00 | 31.74016 | 118.86620 | 57 ft | 0 kts | 238° |
| 2026-04-24 14:18 | 31.74008 | 118.86604 | 57 ft | 4 kts | 238° |
| 2026-04-24 14:19 | 31.73998 | 118.86563 | 57 ft | 6 kts | 284° |
| 2026-04-24 14:19 | 31.74037 | 118.86524 | 57 ft | 8 kts | 329° |
| 2026-04-24 14:19 | 31.74086 | 118.86543 | 57 ft | 8 kts | 58° |
| 2026-04-24 14:19 | 31.74121 | 118.86607 | 57 ft | 10 kts | 59° |
| 2026-04-24 14:20 | 31.74160 | 118.86682 | 57 ft | 11 kts | 58° |
| 2026-04-24 14:20 | 31.74203 | 118.86765 | 57 ft | 12 kts | 58° |
| 2026-04-24 14:20 | 31.74255 | 118.86862 | 57 ft | 14 kts | 58° |
| 2026-04-24 14:20 | 31.74310 | 118.86924 | 57 ft | 10 kts | 356° |
| 2026-04-24 14:21 | 31.74371 | 118.86897 | 57 ft | 7 kts | 3° |
| 2026-04-24 14:21 | 31.74404 | 118.86942 | 57 ft | 8 kts | 59° |
| 2026-04-24 14:21 | 31.74439 | 118.87008 | 57 ft | 11 kts | 58° |
| 2026-04-24 14:21 | 31.74486 | 118.87098 | 57 ft | 14 kts | 58° |
| 2026-04-24 14:22 | 31.74548 | 118.87214 | 57 ft | 18 kts | 59° |
| 2026-04-24 14:22 | 31.74618 | 118.87346 | 57 ft | 19 kts | 57° |
| 2026-04-24 14:22 | 31.74759 | 118.87608 | 57 ft | 19 kts | 58° |
| 2026-04-24 14:23 | 31.74828 | 118.87739 | 57 ft | 18 kts | 58° |
| 2026-04-24 14:23 | 31.74893 | 118.87859 | 57 ft | 9 kts | 58° |
| 2026-04-24 14:23 | 31.74949 | 118.87884 | 57 ft | 10 kts | 341° |
| 2026-04-24 14:23 | 31.75015 | 118.87843 | 57 ft | 11 kts | 327° |
| 2026-04-24 14:24 | 31.75059 | 118.87779 | 57 ft | 10 kts | 264° |
| 2026-04-24 14:24 | 31.75048 | 118.87745 | 57 ft | 0 kts | 238° |
| 2026-04-24 14:24 | 31.74986 | 118.87631 | 57 ft | 52 kts | 238° |
| 2026-04-24 14:24 | 31.74653 | 118.87004 | 57 ft | 125 kts | 237° |
| 2026-04-24 14:25 | 31.74090 | 118.85962 | 225 ft | 167 kts | 238° |
| 2026-04-24 14:25 | 31.73503 | 118.84808 | 938 ft | 169 kts | 245° |
| 2026-04-24 14:25 | 31.73135 | 118.83501 | 1665 ft | 173 kts | 255° |
| 2026-04-24 14:25 | 31.72834 | 118.82140 | 2369 ft | 175 kts | 253° |
| 2026-04-24 14:26 | 31.72500 | 118.80783 | 3064 ft | 176 kts | 252° |
| 2026-04-24 14:26 | 31.72130 | 118.79387 | 3649 ft | 186 kts | 251° |
| 2026-04-24 14:26 | 31.71708 | 118.77867 | 4089 ft | 207 kts | 251° |
| 2026-04-24 14:26 | 31.71240 | 118.76207 | 4610 ft | 226 kts | 251° |
| 2026-04-24 14:27 | 31.70727 | 118.74386 | 5184 ft | 244 kts | 252° |
| 2026-04-24 14:27 | 31.70180 | 118.72439 | 5759 ft | 262 kts | 252° |
| 2026-04-24 14:27 | 31.69589 | 118.70336 | 6354 ft | 280 kts | 252° |
| 2026-04-24 14:27 | 31.68977 | 118.68161 | 7181 ft | 287 kts | 252° |
| 2026-04-24 14:28 | 31.68353 | 118.65950 | 8122 ft | 289 kts | 252° |
| 2026-04-24 14:28 | 31.67721 | 118.63708 | 9067 ft | 291 kts | 252° |
| 2026-04-24 14:28 | 31.67120 | 118.61459 | 9946 ft | 294 kts | 257° |
| 2026-04-24 14:28 | 31.66747 | 118.59101 | 10692 ft | 301 kts | 264° |
| 2026-04-24 14:29 | 31.66647 | 118.56589 | 11152 ft | 318 kts | 272° |
| 2026-04-24 14:29 | 31.66843 | 118.53941 | 11570 ft | 334 kts | 278° |
| 2026-04-24 14:29 | 31.67078 | 118.51179 | 12200 ft | 344 kts | 274° |
| 2026-04-24 14:29 | 31.67119 | 118.48412 | 13004 ft | 347 kts | 271° |
| 2026-04-24 14:30 | 31.67108 | 118.45567 | 13852 ft | 348 kts | 270° |
| 2026-04-24 14:30 | 31.67076 | 118.42770 | 14649 ft | 350 kts | 270° |
| 2026-04-24 14:30 | 31.67036 | 118.39923 | 15426 ft | 352 kts | 270° |
| 2026-04-24 14:30 | 31.66992 | 118.37055 | 16192 ft | 353 kts | 270° |
| 2026-04-24 14:31 | 31.66946 | 118.34187 | 16934 ft | 355 kts | 269° |
| 2026-04-24 14:31 | 31.66899 | 118.31265 | 17649 ft | 358 kts | 269° |
| 2026-04-24 14:31 | 31.66850 | 118.28367 | 18337 ft | 360 kts | 269° |
| 2026-04-24 14:31 | 31.66801 | 118.25419 | 19047 ft | 362 kts | 269° |
| 2026-04-24 14:32 | 31.66752 | 118.22469 | 19733 ft | 363 kts | 269° |
| 2026-04-24 14:32 | 31.66701 | 118.19528 | 20390 ft | 365 kts | 269° |
| 2026-04-24 14:32 | 31.66559 | 118.16553 | 21060 ft | 367 kts | 265° |
| 2026-04-24 14:32 | 31.66296 | 118.13594 | 21725 ft | 369 kts | 264° |
| 2026-04-24 14:33 | 31.66009 | 118.10579 | 22367 ft | 371 kts | 264° |
| 2026-04-24 14:33 | 31.65724 | 118.07597 | 22971 ft | 373 kts | 264° |
| 2026-04-24 14:33 | 31.65433 | 118.04563 | 23601 ft | 375 kts | 264° |
| 2026-04-24 14:33 | 31.65145 | 118.01555 | 24184 ft | 377 kts | 264° |
| 2026-04-24 14:34 | 31.64851 | 117.98505 | 24755 ft | 379 kts | 264° |
| 2026-04-24 14:34 | 31.64555 | 117.95436 | 25345 ft | 380 kts | 264° |
| 2026-04-24 14:34 | 31.64254 | 117.92326 | 25890 ft | 382 kts | 264° |
| 2026-04-24 14:34 | 31.63957 | 117.89268 | 26396 ft | 384 kts | 264° |
| 2026-04-24 14:35 | 31.63651 | 117.86121 | 26892 ft | 387 kts | 263° |
| 2026-04-24 14:35 | 31.63346 | 117.82983 | 27204 ft | 393 kts | 263° |
| 2026-04-24 14:35 | 31.63031 | 117.79768 | 27547 ft | 398 kts | 263° |
| 2026-04-24 14:35 | 31.62717 | 117.76569 | 27988 ft | 399 kts | 263° |
| 2026-04-24 14:36 | 31.62398 | 117.73315 | 28419 ft | 401 kts | 263° |
| 2026-04-24 14:36 | 31.62078 | 117.70072 | 28813 ft | 403 kts | 263° |
| 2026-04-24 14:36 | 31.61758 | 117.66841 | 29195 ft | 404 kts | 263° |
| 2026-04-24 14:36 | 31.61527 | 117.63532 | 29556 ft | 406 kts | 269° |
| 2026-04-24 14:37 | 31.61731 | 117.60237 | 29983 ft | 407 kts | 277° |
| 2026-04-24 14:37 | 31.62364 | 117.57018 | 30428 ft | 407 kts | 284° |
| 2026-04-24 14:37 | 31.63403 | 117.53938 | 30851 ft | 408 kts | 292° |
| 2026-04-24 14:37 | 31.64834 | 117.51057 | 31256 ft | 410 kts | 299° |
| 2026-04-24 14:38 | 31.66440 | 117.48350 | 31690 ft | 407 kts | 300° |
| 2026-04-24 14:38 | 31.68078 | 117.45656 | 32075 ft | 406 kts | 300° |
| 2026-04-24 14:38 | 31.69719 | 117.42969 | 32400 ft | 405 kts | 300° |
| 2026-04-24 14:38 | 31.71279 | 117.40253 | 32705 ft | 400 kts | 294° |
| 2026-04-24 14:39 | 31.72440 | 117.37303 | 32956 ft | 395 kts | 285° |
| 2026-04-24 14:39 | 31.73155 | 117.34203 | 33112 ft | 393 kts | 276° |
| 2026-04-24 14:39 | 31.73426 | 117.31067 | 33272 ft | 392 kts | 268° |
| 2026-04-24 14:39 | 31.73264 | 117.27866 | 33452 ft | 392 kts | 259° |
| 2026-04-24 14:40 | 31.72673 | 117.24766 | 33662 ft | 391 kts | 252° |
| 2026-04-24 14:40 | 31.71658 | 117.21792 | 33907 ft | 391 kts | 244° |
| 2026-04-24 14:40 | 31.70277 | 117.19092 | 34119 ft | 392 kts | 236° |
| 2026-04-24 14:40 | 31.68672 | 117.16499 | 34411 ft | 391 kts | 236° |
| 2026-04-24 14:41 | 31.67062 | 117.13927 | 34682 ft | 389 kts | 236° |
| 2026-04-24 14:41 | 31.65450 | 117.11380 | 34899 ft | 389 kts | 236° |
| 2026-04-24 14:41 | 31.63846 | 117.08859 | 35092 ft | 389 kts | 235° |
| 2026-04-24 14:41 | 31.62218 | 117.06311 | 35294 ft | 389 kts | 235° |
| 2026-04-24 14:42 | 31.60595 | 117.03796 | 35749 ft | 389 kts | 235° |
| 2026-04-24 14:42 | 31.57294 | 116.98805 | 35975 ft | 388 kts | 235° |
| 2026-04-24 14:42 | 31.55634 | 116.96298 | 36429 ft | 388 kts | 235° |
| 2026-04-24 14:43 | 31.53998 | 116.93827 | 36632 ft | 387 kts | 235° |
| 2026-04-24 14:43 | 31.52354 | 116.91341 | 36795 ft | 388 kts | 235° |
| 2026-04-24 14:43 | 31.50697 | 116.88840 | 36934 ft | 389 kts | 235° |
| 2026-04-24 14:43 | 31.49037 | 116.86334 | 37054 ft | 390 kts | 235° |
| 2026-04-24 14:44 | 31.47372 | 116.83818 | 37193 ft | 391 kts | 235° |
| 2026-04-24 14:44 | 31.45723 | 116.81298 | 37323 ft | 391 kts | 235° |
| 2026-04-24 14:44 | 31.44058 | 116.78745 | 37438 ft | 392 kts | 235° |
| 2026-04-24 14:44 | 31.42412 | 116.76221 | 37556 ft | 393 kts | 235° |
| 2026-04-24 14:45 | 31.40766 | 116.73701 | 37671 ft | 394 kts | 236° |
| 2026-04-24 14:45 | 31.39088 | 116.71136 | 37782 ft | 394 kts | 235° |
| 2026-04-24 14:45 | 31.37429 | 116.68594 | 37884 ft | 395 kts | 236° |
| 2026-04-24 14:46 | 31.34066 | 116.63460 | 38084 ft | 396 kts | 235° |
| 2026-04-24 14:46 | 31.32410 | 116.60932 | 38186 ft | 397 kts | 235° |
| 2026-04-24 14:46 | 31.30727 | 116.58363 | 38193 ft | 397 kts | 235° |
| 2026-04-24 14:47 | 31.27374 | 116.53258 | 38201 ft | 398 kts | 235° |
| 2026-04-24 14:47 | 31.24007 | 116.48137 | 38208 ft | 398 kts | 236° |
| 2026-04-24 14:48 | 31.20634 | 116.43008 | 38218 ft | 398 kts | 236° |
| 2026-04-24 14:48 | 31.17268 | 116.37900 | 38214 ft | 397 kts | 235° |
| 2026-04-24 14:49 | 31.13887 | 116.32779 | 38216 ft | 398 kts | 235° |
| 2026-04-24 14:49 | 31.10521 | 116.27687 | 38223 ft | 398 kts | 235° |
| 2026-04-24 14:50 | 31.07156 | 116.22594 | 38223 ft | 398 kts | 235° |
| 2026-04-24 14:50 | 31.03768 | 116.17484 | 38221 ft | 398 kts | 234° |
| 2026-04-24 14:51 | 31.00381 | 116.12376 | 38215 ft | 398 kts | 235° |
| 2026-04-24 14:51 | 30.96988 | 116.07269 | 38219 ft | 399 kts | 235° |
| 2026-04-24 14:52 | 30.93613 | 116.02190 | 38213 ft | 399 kts | 235° |
| 2026-04-24 14:52 | 30.90214 | 115.97086 | 38214 ft | 398 kts | 234° |
| 2026-04-24 14:53 | 30.86832 | 115.92015 | 38204 ft | 399 kts | 235° |
| 2026-04-24 14:53 | 30.83439 | 115.86904 | 38205 ft | 398 kts | 235° |
| 2026-04-24 14:54 | 30.80069 | 115.81798 | 38205 ft | 399 kts | 235° |
| 2026-04-24 14:54 | 30.76696 | 115.76681 | 38192 ft | 399 kts | 236° |
| 2026-04-24 14:55 | 30.73315 | 115.71558 | 38191 ft | 399 kts | 235° |
| 2026-04-24 14:55 | 30.69950 | 115.66473 | 38189 ft | 400 kts | 236° |
| 2026-04-24 14:56 | 30.66555 | 115.61340 | 38185 ft | 400 kts | 235° |
| 2026-04-24 14:56 | 30.63169 | 115.56231 | 38186 ft | 399 kts | 235° |
| 2026-04-24 14:57 | 30.59775 | 115.51118 | 38181 ft | 400 kts | 235° |
| 2026-04-24 14:57 | 30.56398 | 115.46036 | 38182 ft | 399 kts | 236° |
| 2026-04-24 14:58 | 30.53004 | 115.40935 | 38181 ft | 399 kts | 236° |
| 2026-04-24 14:58 | 30.49618 | 115.35845 | 38180 ft | 399 kts | 237° |
| 2026-04-24 14:59 | 30.46836 | 115.30344 | 38182 ft | 397 kts | 248° |
| 2026-04-24 14:59 | 30.45143 | 115.24284 | 38182 ft | 399 kts | 258° |
| 2026-04-24 15:00 | 30.44608 | 115.17918 | 38181 ft | 401 kts | 269° |